Lidy Hot Springs, Idaho
Current Conditions -  °F | °C
As of 12:53 AM on Thursday 23 Oct 2014 (Local Time) from KRXE Reporting Station
Clear Clear  
Wind Chill: 29°   Ceiling: Unl
Heat Index: 34°   Visibility: 10mi
Dew Point: 28°   Wind: 6mph
Humidity: 79%   Direction: 40°NE
Pressure: 30.15"   Gusts: NA
Location:  44.2396°N, 112.579°W
Report Text: KRXE 230653Z AUTO 04005KT 10SM CLR 01/M02 A3015 RMK AO2 SLP212 T00111022 401221011
Loading
Personal Weather Stations






























Interactive Weather Map
Tropical Storm Tracking
New forecast layout! Learn more

10-Day Weather Forecast

Advertisements
Track Severe Weather on mobile